Archival Weather

Pocono Mountains Rgnl

Mount Pocono, Pennsylvania (KMPO)

Report from: Tuesday, May 21, 2024 10:53 PM EDT
Current time: Monday, July 22, 2024 7:26 AM EDT

Current weather – Weather history – Daily summaries
Weather forecast

Temperature17.8°C (64.0°F)
Dew point12.8°C (55.0°F)
Winds 4 kts (2.1 m/s, 4.6 mph) Southwest (230°)
Visibility10 mi. (16.1 km)
Clouds Sky clear
Altimeter30.01 in.Hg (1016 mB)
Relative humidity73 %
Density altitude477 ft. (145 m)
Sea-level pressure101.5 kPa (1015 mB, 29.97 in.Hg)
Remarks Fully automated report
Automated weather observing station with precipitation discriminator
Pressure rising more quickly
Flight conditions Visual Meteorological Conditions
Raw dataKMPO 220253Z AUTO 23004KT 10SM CLR 18/13 A3001 RMK AO2 SLP150 T01780128 53003
An error has occurred. This application may no longer respond until reloaded. Reload 🗙